createdAt,value
2019-02-25T00:00:13.057Z,43.04
2019-02-25T00:02:43.453Z,43.06
2019-02-25T00:05:14.024Z,42.39
2019-02-25T00:07:44.263Z,42.08
2019-02-25T00:10:14.675Z,41.74
2019-02-25T00:12:44.961Z,43.20
2019-02-25T00:15:15.341Z,43.51
2019-02-25T00:17:45.667Z,44.16
2019-02-25T00:20:21.808Z,44.14
2019-02-25T00:22:51.979Z,44.38
2019-02-25T00:25:24.214Z,44.53
2019-02-25T00:27:54.535Z,44.66
2019-02-25T00:30:25.209Z,45.30
2019-02-25T00:32:55.599Z,45.46
2019-02-25T00:35:25.875Z,45.04
2019-02-25T00:37:56.245Z,44.44
2019-02-25T00:40:27.668Z,44.64
2019-02-25T00:42:58.219Z,45.03
2019-02-25T00:45:28.482Z,45.52
2019-02-25T00:47:58.653Z,46.08
2019-02-25T00:50:28.876Z,46.92
2019-02-25T00:52:59.194Z,46.42
2019-02-25T00:55:29.430Z,46.59
2019-02-25T00:57:59.680Z,46.87
2019-02-25T01:00:29.951Z,46.64
2019-02-25T01:03:00.121Z,46.85
2019-02-25T01:05:30.483Z,47.34
2019-02-25T01:08:00.739Z,47.28
2019-02-25T01:10:31.094Z,47.45
2019-02-25T01:13:01.416Z,47.32
2019-02-25T01:15:31.607Z,46.47
2019-02-25T01:18:01.893Z,47.05
2019-02-25T01:20:32.321Z,46.76
2019-02-25T01:23:02.655Z,47.40
2019-02-25T01:25:32.960Z,47.76
2019-02-25T01:28:03.260Z,47.69
2019-02-25T01:30:33.624Z,47.91
2019-02-25T01:33:03.787Z,48.33
2019-02-25T01:35:34.198Z,47.88
2019-02-25T01:38:04.607Z,48.17
2019-02-25T01:40:34.909Z,48.58
2019-02-25T01:43:05.292Z,48.58
2019-02-25T01:45:35.704Z,47.99
2019-02-25T01:48:06.076Z,48.45
2019-02-25T01:50:36.383Z,49.33
2019-02-25T01:53:06.886Z,49.60
2019-02-25T01:55:37.176Z,49.44
2019-02-25T01:58:07.453Z,48.77
2019-02-25T02:00:37.832Z,48.80
2019-02-25T02:03:08.138Z,48.54
2019-02-25T02:05:38.374Z,48.48
2019-02-25T02:08:08.688Z,46.64
2019-02-25T02:10:38.947Z,47.18
2019-02-25T02:13:14.207Z,47.45
2019-02-25T02:15:41.460Z,46.74
2019-02-25T02:18:11.784Z,47.06
2019-02-25T02:20:42.169Z,47.07
2019-02-25T02:23:12.416Z,47.60
2019-02-25T02:25:42.750Z,47.79
2019-02-25T02:28:12.902Z,47.81
2019-02-25T02:30:43.222Z,46.76
2019-02-25T02:33:13.487Z,47.08
2019-02-25T02:35:43.805Z,46.26
2019-02-25T02:38:14.028Z,47.08
2019-02-25T02:40:44.232Z,47.77
2019-02-25T02:43:14.661Z,48.66
2019-02-25T02:46:00.961Z,49.92
2019-02-25T02:48:51.744Z,51.53
2019-02-25T02:51:22.045Z,53.52
2019-02-25T02:53:52.267Z,52.50
2019-02-25T02:56:23.680Z,52.06
2019-02-25T02:58:53.967Z,52.14
2019-02-25T03:01:24.249Z,52.16
2019-02-25T03:03:54.392Z,51.85
2019-02-25T03:06:24.515Z,51.13
2019-02-25T03:08:54.793Z,50.54
2019-02-25T03:11:25.103Z,50.45
2019-02-25T03:13:55.327Z,50.43
2019-02-25T03:16:25.547Z,50.48
2019-02-25T03:18:55.703Z,50.69
2019-02-25T03:21:25.911Z,50.55
2019-02-25T03:23:56.131Z,50.67
2019-02-25T03:26:26.304Z,50.42
2019-02-25T03:28:56.566Z,50.53
2019-02-25T03:31:26.763Z,50.80
2019-02-25T03:33:57.043Z,50.72
2019-02-25T03:36:27.241Z,51.09
2019-02-25T03:38:57.516Z,52.35
2019-02-25T03:41:27.677Z,52.04
2019-02-25T03:43:57.892Z,51.67
2019-02-25T03:46:28.196Z,51.84
2019-02-25T03:48:58.397Z,51.95
2019-02-25T03:51:28.664Z,51.98
2019-02-25T03:53:58.893Z,51.58
2019-02-25T03:56:29.053Z,51.74
2019-02-25T03:58:59.415Z,51.45
2019-02-25T04:01:29.842Z,51.13
2019-02-25T04:04:00.308Z,51.50
2019-02-25T04:06:30.709Z,51.17
2019-02-25T04:09:01.000Z,50.75
2019-02-25T04:11:31.237Z,51.41
2019-02-25T04:14:01.623Z,51.56
2019-02-25T04:16:32.064Z,51.46
2019-02-25T04:19:02.200Z,51.90
2019-02-25T04:21:32.469Z,52.65
2019-02-25T04:24:02.620Z,52.39
2019-02-25T04:26:32.959Z,52.29
2019-02-25T04:29:03.204Z,51.82
2019-02-25T04:31:33.403Z,51.60
2019-02-25T04:34:03.649Z,52.25
2019-02-25T04:36:33.909Z,52.22
2019-02-25T04:39:04.772Z,51.96
2019-02-25T04:41:35.011Z,52.71
2019-02-25T04:44:05.235Z,52.46
2019-02-25T04:46:35.506Z,52.31
2019-02-25T04:49:05.989Z,51.79
2019-02-25T04:51:36.329Z,51.61
2019-02-25T04:54:06.516Z,52.29
2019-02-25T04:56:36.682Z,52.70
2019-02-25T04:59:06.948Z,53.17
2019-02-25T05:01:37.183Z,53.04
2019-02-25T05:04:07.452Z,52.57
2019-02-25T05:06:37.657Z,52.86
2019-02-25T05:09:08.385Z,52.55
2019-02-25T05:11:38.531Z,52.27
2019-02-25T05:14:08.874Z,52.29
2019-02-25T05:16:40.040Z,53.19
2019-02-25T05:19:10.403Z,53.05
2019-02-25T05:21:40.703Z,53.66
2019-02-25T05:24:11.119Z,54.35
2019-02-25T05:26:41.422Z,54.52
2019-02-25T05:29:11.840Z,54.65
2019-02-25T05:31:42.044Z,54.04
2019-02-25T05:34:12.348Z,54.05
2019-02-25T05:36:42.574Z,54.17
2019-02-25T05:39:12.769Z,54.44
2019-02-25T05:41:43.009Z,54.63
2019-02-25T05:44:13.192Z,55.16
2019-02-25T05:46:43.363Z,55.15
2019-02-25T05:49:13.601Z,54.85
2019-02-25T05:51:43.921Z,55.36
2019-02-25T05:54:14.147Z,54.20
2019-02-25T05:56:44.366Z,54.44
2019-02-25T05:59:14.596Z,53.97
2019-02-25T06:01:44.888Z,54.09
2019-02-25T06:04:15.133Z,54.05
2019-02-25T06:06:45.377Z,55.17
2019-02-25T06:09:15.700Z,56.78
2019-02-25T06:11:45.976Z,55.39
2019-02-25T06:14:16.188Z,55.53
2019-02-25T06:16:46.476Z,55.80
2019-02-25T06:19:16.715Z,55.45
2019-02-25T06:21:47.116Z,55.52
2019-02-25T06:24:17.289Z,54.98
2019-02-25T06:26:47.463Z,56.05
2019-02-25T06:29:17.715Z,56.00
2019-02-25T06:31:48.040Z,55.85
2019-02-25T06:34:18.235Z,55.91
2019-02-25T06:36:48.432Z,55.63
2019-02-25T06:39:18.775Z,55.15
2019-02-25T06:41:48.978Z,54.92
2019-02-25T06:44:19.209Z,54.82
2019-02-25T06:46:49.646Z,55.05
2019-02-25T06:49:19.854Z,55.18
2019-02-25T06:51:50.044Z,55.80
2019-02-25T06:54:20.288Z,55.73
2019-02-25T06:56:50.483Z,55.15
2019-02-25T06:59:20.712Z,55.42
2019-02-25T07:01:50.985Z,55.32
2019-02-25T07:04:32.576Z,55.81
2019-02-25T07:07:30.585Z,55.39
2019-02-25T07:10:19.781Z,54.86
2019-02-25T07:13:08.868Z,54.92
2019-02-25T07:15:50.493Z,54.96
2019-02-25T07:18:29.615Z,54.59
2019-02-25T07:21:21.752Z,54.67
2019-02-25T07:24:23.311Z,54.21
2019-02-25T07:27:00.710Z,53.58
2019-02-25T07:29:39.943Z,52.62
2019-02-25T07:32:30.237Z,53.08
2019-02-25T07:35:08.244Z,51.74
2019-02-25T07:38:06.713Z,51.80
2019-02-25T07:40:49.661Z,50.58
2019-02-25T07:43:27.738Z,50.39
2019-02-25T07:48:52.242Z,50.88
2019-02-25T07:51:41.439Z,51.17
2019-02-25T07:54:33.791Z,50.86
2019-02-25T07:57:22.113Z,50.61
2019-02-25T08:00:20.670Z,50.21
2019-02-25T08:03:12.510Z,50.36
2019-02-25T08:06:11.990Z,49.77
2019-02-25T18:11:04.089Z,58.84
2019-02-25T18:13:32.937Z,59.44
2019-02-25T18:16:01.512Z,59.43
2019-02-25T18:18:30.049Z,59.37
2019-02-25T18:20:57.507Z,59.66
2019-02-25T18:23:25.135Z,60.27
2019-02-25T18:25:53.597Z,60.63
2019-02-25T18:28:22.552Z,60.82
2019-02-25T18:30:50.641Z,60.87
2019-02-25T18:33:20.197Z,60.77
2019-02-25T18:35:48.275Z,60.93
2019-02-25T18:38:15.959Z,61.55
2019-02-25T18:40:45.771Z,62.38
2019-02-25T18:43:19.995Z,62.10
2019-02-25T18:45:49.544Z,63.05
2019-02-25T18:48:18.676Z,63.42
2019-02-25T18:50:47.457Z,63.23
2019-02-25T18:53:16.605Z,63.96
2019-02-25T18:55:48.467Z,63.73
2019-02-25T18:58:17.434Z,63.91
2019-02-25T19:00:47.156Z,64.44
2019-02-25T19:03:14.699Z,62.87
2019-02-25T19:05:43.263Z,62.77
2019-02-25T19:08:17.094Z,64.40
2019-02-25T19:10:47.944Z,65.04
2019-02-25T19:13:18.177Z,65.90
2019-02-25T19:15:45.389Z,66.31
2019-02-25T19:18:13.788Z,67.28
2019-02-25T19:20:43.419Z,67.75
2019-02-25T19:23:12.413Z,68.13
2019-02-25T19:25:41.196Z,68.37
2019-02-25T19:28:09.059Z,69.15
2019-02-25T19:30:36.496Z,68.80
2019-02-25T19:33:10.823Z,69.45
2019-02-25T19:35:36.081Z,68.87
2019-02-25T19:38:05.450Z,69.51
2019-02-25T19:40:33.161Z,69.39
2019-02-25T19:43:03.766Z,70.45
2019-02-25T19:45:30.157Z,70.11
2019-02-25T19:48:00.051Z,70.62
2019-02-25T19:50:28.185Z,71.37
2019-02-25T19:53:00.432Z,71.78
2019-02-25T19:55:26.033Z,71.65
2019-02-25T19:57:53.680Z,72.18
2019-02-25T20:00:25.746Z,72.01
2019-02-25T20:03:04.752Z,71.84
2019-02-25T20:05:25.051Z,72.68
2019-02-25T20:07:54.609Z,72.98
2019-02-25T20:10:22.251Z,72.44
2019-02-25T20:12:51.622Z,72.25
2019-02-25T20:15:23.076Z,73.10
2019-02-25T20:17:50.648Z,73.21
2019-02-25T20:20:18.943Z,73.91
2019-02-25T20:22:46.519Z,74.87
2019-02-25T20:25:14.799Z,74.64
2019-02-25T20:27:43.941Z,74.34
2019-02-25T20:30:13.759Z,74.48
2019-02-25T20:32:42.846Z,74.58
2019-02-25T20:35:13.938Z,74.40
2019-02-25T20:37:41.866Z,74.73
2019-02-25T20:40:10.109Z,75.04
2019-02-25T20:42:37.816Z,75.41
2019-02-25T20:45:09.225Z,75.52
2019-02-25T20:47:36.618Z,75.75
2019-02-25T20:50:07.256Z,76.14
2019-02-25T20:52:36.223Z,76.68
2019-02-25T20:55:05.885Z,76.63
2019-02-25T20:57:35.888Z,76.91
2019-02-25T21:00:04.351Z,77.37
2019-02-25T21:02:31.783Z,76.61
2019-02-25T21:04:59.014Z,77.57
2019-02-25T21:07:27.601Z,77.34
2019-02-25T21:09:56.858Z,77.96
2019-02-25T21:12:24.609Z,78.28
2019-02-25T21:14:51.964Z,78.13
2019-02-25T21:17:19.419Z,78.50
2019-02-25T21:19:46.641Z,78.69
2019-02-25T21:22:13.925Z,77.23
2019-02-25T21:24:41.260Z,76.59
2019-02-25T21:27:10.436Z,76.58
2019-02-25T21:29:38.822Z,76.81
2019-02-25T21:32:07.093Z,76.49
2019-02-25T21:34:34.441Z,77.21
2019-02-25T21:37:02.991Z,77.52
2019-02-25T21:39:31.930Z,77.57
2019-02-25T21:41:59.800Z,77.65
2019-02-25T21:44:28.956Z,78.09
2019-02-25T21:46:58.293Z,78.71
2019-02-25T21:49:27.146Z,78.56
2019-02-25T21:51:55.191Z,78.74
2019-02-25T21:54:22.609Z,79.41
2019-02-25T21:56:50.112Z,80.01
2019-02-25T21:59:17.677Z,79.99
2019-02-25T22:01:45.146Z,80.06
2019-02-25T22:04:13.375Z,80.43
2019-02-25T22:06:42.063Z,80.28
2019-02-25T22:09:10.028Z,80.67
2019-02-25T22:11:37.301Z,80.91
2019-02-25T22:14:06.927Z,81.25
2019-02-25T22:16:43.652Z,81.80
2019-02-25T22:19:03.962Z,81.93
2019-02-25T22:21:31.354Z,81.87
2019-02-25T22:24:01.339Z,82.33
2019-02-25T22:26:29.151Z,82.79
2019-02-25T22:28:57.926Z,82.34
2019-02-25T22:31:27.201Z,82.99
2019-02-25T22:33:54.760Z,83.08
2019-02-25T22:36:22.225Z,83.46
2019-02-25T22:38:49.447Z,82.82
2019-02-25T22:41:18.336Z,82.81
2019-02-25T22:43:47.702Z,83.39
2019-02-25T22:46:15.281Z,83.10
2019-02-25T22:48:44.558Z,83.55
2019-02-25T22:51:11.870Z,84.14
2019-02-25T22:53:39.158Z,83.21
2019-02-25T22:56:11.415Z,83.58
2019-02-25T22:58:38.034Z,82.73
2019-02-25T23:01:14.728Z,83.73
2019-02-25T23:03:42.915Z,83.82
2019-02-25T23:06:13.292Z,85.15
2019-02-25T23:08:42.065Z,84.02
2019-02-25T23:11:10.310Z,84.52
2019-02-25T23:13:38.053Z,84.17
2019-02-25T23:16:06.018Z,84.36
2019-02-25T23:18:33.417Z,85.08
2019-02-25T23:21:03.023Z,85.00
2019-02-25T23:23:30.597Z,85.53
2019-02-25T23:25:59.530Z,85.29
2019-02-25T23:28:28.466Z,85.30
2019-02-25T23:30:56.206Z,85.69
2019-02-25T23:33:24.613Z,85.55
2019-02-25T23:35:54.128Z,85.34
2019-02-25T23:38:21.418Z,85.67
2019-02-25T23:40:48.851Z,85.82
2019-02-25T23:43:17.182Z,85.86
2019-02-25T23:45:46.408Z,84.99
2019-02-25T23:48:13.872Z,85.58
2019-02-25T23:50:41.367Z,85.58
2019-02-25T23:53:08.686Z,84.90
2019-02-25T23:55:35.910Z,85.33
2019-02-25T23:58:05.567Z,85.71
